sensor_id;sensor_type;location;lat;lon;timestamp;P1;durP1;ratioP1;P2;durP2;ratioP2
14470;SDS011;7321;50.802;4.336;2023-12-04T00:01:33;10.23;;;7.13;;
14470;SDS011;7321;50.802;4.336;2023-12-04T00:03:59;12.97;;;8.47;;
14470;SDS011;7321;50.802;4.336;2023-12-04T00:06:26;10.63;;;7.43;;
14470;SDS011;7321;50.802;4.336;2023-12-04T00:08:52;14.10;;;8.00;;
14470;SDS011;7321;50.802;4.336;2023-12-04T00:11:17;10.67;;;7.30;;
14470;SDS011;7321;50.802;4.336;2023-12-04T00:13:43;12.60;;;7.50;;
14470;SDS011;7321;50.802;4.336;2023-12-04T00:16:09;14.53;;;8.67;;
14470;SDS011;7321;50.802;4.336;2023-12-04T00:18:35;12.20;;;7.50;;
14470;SDS011;7321;50.802;4.336;2023-12-04T00:21:01;9.80;;;7.07;;
14470;SDS011;7321;50.802;4.336;2023-12-04T00:23:27;11.07;;;7.67;;
14470;SDS011;7321;50.802;4.336;2023-12-04T00:25:53;10.43;;;6.83;;
14470;SDS011;7321;50.802;4.336;2023-12-04T00:28:20;11.93;;;7.60;;
14470;SDS011;7321;50.802;4.336;2023-12-04T00:30:46;11.20;;;7.63;;
14470;SDS011;7321;50.802;4.336;2023-12-04T00:33:12;12.30;;;7.47;;
14470;SDS011;7321;50.802;4.336;2023-12-04T00:35:38;10.47;;;7.20;;
14470;SDS011;7321;50.802;4.336;2023-12-04T00:38:04;11.73;;;7.73;;
14470;SDS011;7321;50.802;4.336;2023-12-04T00:40:29;10.87;;;7.37;;
14470;SDS011;7321;50.802;4.336;2023-12-04T00:42:55;9.10;;;6.27;;
14470;SDS011;7321;50.802;4.336;2023-12-04T00:45:21;8.93;;;6.27;;
14470;SDS011;7321;50.802;4.336;2023-12-04T00:47:47;9.13;;;6.90;;
14470;SDS011;7321;50.802;4.336;2023-12-04T00:50:13;9.33;;;6.80;;
14470;SDS011;7321;50.802;4.336;2023-12-04T00:52:39;11.13;;;6.93;;
14470;SDS011;7321;50.802;4.336;2023-12-04T00:55:05;11.27;;;7.87;;
14470;SDS011;7321;50.802;4.336;2023-12-04T00:57:31;9.20;;;6.60;;
14470;SDS011;7321;50.802;4.336;2023-12-04T00:59:57;9.13;;;6.53;;
14470;SDS011;7321;50.802;4.336;2023-12-04T01:02:23;10.63;;;6.93;;
14470;SDS011;7321;50.802;4.336;2023-12-04T01:04:49;11.57;;;7.10;;
14470;SDS011;7321;50.802;4.336;2023-12-04T01:07:15;9.67;;;6.83;;
14470;SDS011;7321;50.802;4.336;2023-12-04T01:09:41;10.67;;;6.93;;
14470;SDS011;7321;50.802;4.336;2023-12-04T01:12:07;9.00;;;6.13;;
14470;SDS011;7321;50.802;4.336;2023-12-04T01:14:33;9.50;;;6.60;;
14470;SDS011;7321;50.802;4.336;2023-12-04T01:16:58;10.00;;;6.43;;
14470;SDS011;7321;50.802;4.336;2023-12-04T01:19:24;9.90;;;6.63;;
14470;SDS011;7321;50.802;4.336;2023-12-04T01:21:50;10.27;;;6.47;;
14470;SDS011;7321;50.802;4.336;2023-12-04T01:24:16;9.07;;;6.53;;
14470;SDS011;7321;50.802;4.336;2023-12-04T01:26:42;8.30;;;5.97;;
14470;SDS011;7321;50.802;4.336;2023-12-04T01:29:08;7.77;;;6.00;;
14470;SDS011;7321;50.802;4.336;2023-12-04T01:31:34;8.60;;;5.57;;
14470;SDS011;7321;50.802;4.336;2023-12-04T01:34:00;8.57;;;5.83;;
14470;SDS011;7321;50.802;4.336;2023-12-04T01:36:26;8.53;;;5.93;;
14470;SDS011;7321;50.802;4.336;2023-12-04T01:38:52;7.87;;;5.60;;
14470;SDS011;7321;50.802;4.336;2023-12-04T01:41:18;8.27;;;5.73;;
14470;SDS011;7321;50.802;4.336;2023-12-04T01:43:43;7.67;;;5.70;;
14470;SDS011;7321;50.802;4.336;2023-12-04T01:46:09;7.93;;;5.60;;
14470;SDS011;7321;50.802;4.336;2023-12-04T01:48:36;8.27;;;5.70;;
14470;SDS011;7321;50.802;4.336;2023-12-04T01:51:03;8.97;;;6.03;;
14470;SDS011;7321;50.802;4.336;2023-12-04T01:53:33;8.80;;;6.27;;
14470;SDS011;7321;50.802;4.336;2023-12-04T01:56:01;7.30;;;5.47;;
14470;SDS011;7321;50.802;4.336;2023-12-04T01:58:27;9.30;;;6.53;;
14470;SDS011;7321;50.802;4.336;2023-12-04T02:00:53;6.93;;;5.20;;
14470;SDS011;7321;50.802;4.336;2023-12-04T02:03:19;6.97;;;5.20;;
14470;SDS011;7321;50.802;4.336;2023-12-04T02:05:45;8.77;;;5.80;;
14470;SDS011;7321;50.802;4.336;2023-12-04T02:08:12;8.70;;;5.50;;
14470;SDS011;7321;50.802;4.336;2023-12-04T02:10:38;7.87;;;5.13;;
14470;SDS011;7321;50.802;4.336;2023-12-04T02:13:04;8.63;;;5.50;;
14470;SDS011;7321;50.802;4.336;2023-12-04T02:15:31;6.70;;;5.37;;
14470;SDS011;7321;50.802;4.336;2023-12-04T02:17:56;7.07;;;5.20;;
14470;SDS011;7321;50.802;4.336;2023-12-04T02:20:30;7.83;;;5.53;;
14470;SDS011;7321;50.802;4.336;2023-12-04T02:22:57;8.30;;;5.43;;
14470;SDS011;7321;50.802;4.336;2023-12-04T02:25:23;9.27;;;5.67;;
14470;SDS011;7321;50.802;4.336;2023-12-04T02:27:49;7.17;;;5.33;;
14470;SDS011;7321;50.802;4.336;2023-12-04T02:30:18;7.10;;;5.40;;
14470;SDS011;7321;50.802;4.336;2023-12-04T02:32:47;7.80;;;5.37;;
14470;SDS011;7321;50.802;4.336;2023-12-04T02:35:14;7.97;;;5.30;;
14470;SDS011;7321;50.802;4.336;2023-12-04T02:37:42;7.67;;;5.27;;
14470;SDS011;7321;50.802;4.336;2023-12-04T02:40:08;8.47;;;5.67;;
14470;SDS011;7321;50.802;4.336;2023-12-04T02:42:36;8.20;;;5.87;;
14470;SDS011;7321;50.802;4.336;2023-12-04T02:45:02;8.33;;;5.77;;
14470;SDS011;7321;50.802;4.336;2023-12-04T02:47:28;6.87;;;5.30;;
14470;SDS011;7321;50.802;4.336;2023-12-04T02:49:53;7.27;;;5.20;;
14470;SDS011;7321;50.802;4.336;2023-12-04T02:52:19;6.90;;;5.33;;
14470;SDS011;7321;50.802;4.336;2023-12-04T02:54:45;6.90;;;5.07;;
14470;SDS011;7321;50.802;4.336;2023-12-04T02:57:11;6.27;;;4.93;;
14470;SDS011;7321;50.802;4.336;2023-12-04T02:59:37;7.63;;;5.43;;
14470;SDS011;7321;50.802;4.336;2023-12-04T03:02:02;7.23;;;5.20;;
14470;SDS011;7321;50.802;4.336;2023-12-04T03:04:30;7.00;;;4.90;;
14470;SDS011;7321;50.802;4.336;2023-12-04T03:06:56;7.37;;;4.83;;
14470;SDS011;7321;50.802;4.336;2023-12-04T03:09:22;5.70;;;4.50;;
14470;SDS011;7321;50.802;4.336;2023-12-04T03:11:48;7.60;;;5.27;;
14470;SDS011;7321;50.802;4.336;2023-12-04T03:14:14;7.30;;;4.97;;
14470;SDS011;7321;50.802;4.336;2023-12-04T03:16:40;6.67;;;5.23;;
14470;SDS011;7321;50.802;4.336;2023-12-04T03:19:06;6.60;;;5.07;;
14470;SDS011;7321;50.802;4.336;2023-12-04T03:21:32;7.83;;;4.93;;
14470;SDS011;7321;50.802;4.336;2023-12-04T03:23:58;7.17;;;4.77;;
14470;SDS011;7321;50.802;4.336;2023-12-04T03:26:23;7.30;;;5.17;;
14470;SDS011;7321;50.802;4.336;2023-12-04T03:28:49;6.47;;;4.70;;
14470;SDS011;7321;50.802;4.336;2023-12-04T03:31:15;6.90;;;5.20;;
14470;SDS011;7321;50.802;4.336;2023-12-04T03:33:41;7.30;;;4.77;;
14470;SDS011;7321;50.802;4.336;2023-12-04T03:36:07;6.33;;;4.67;;
14470;SDS011;7321;50.802;4.336;2023-12-04T03:38:33;9.93;;;4.87;;
14470;SDS011;7321;50.802;4.336;2023-12-04T03:40:59;7.07;;;5.03;;
14470;SDS011;7321;50.802;4.336;2023-12-04T03:43:25;6.67;;;5.00;;
14470;SDS011;7321;50.802;4.336;2023-12-04T03:45:51;6.73;;;4.83;;
14470;SDS011;7321;50.802;4.336;2023-12-04T03:48:17;7.73;;;5.33;;
14470;SDS011;7321;50.802;4.336;2023-12-04T03:50:42;6.47;;;5.03;;
14470;SDS011;7321;50.802;4.336;2023-12-04T03:53:08;6.53;;;5.07;;
14470;SDS011;7321;50.802;4.336;2023-12-04T03:55:34;6.57;;;4.63;;
14470;SDS011;7321;50.802;4.336;2023-12-04T03:58:00;6.00;;;4.50;;
14470;SDS011;7321;50.802;4.336;2023-12-04T04:00:26;5.00;;;4.07;;
14470;SDS011;7321;50.802;4.336;2023-12-04T04:02:52;6.27;;;4.93;;
14470;SDS011;7321;50.802;4.336;2023-12-04T04:05:17;5.87;;;4.27;;
14470;SDS011;7321;50.802;4.336;2023-12-04T04:07:43;6.63;;;5.00;;
14470;SDS011;7321;50.802;4.336;2023-12-04T04:10:09;6.50;;;4.80;;
14470;SDS011;7321;50.802;4.336;2023-12-04T04:12:35;7.33;;;5.33;;
14470;SDS011;7321;50.802;4.336;2023-12-04T04:15:01;6.30;;;4.67;;
14470;SDS011;7321;50.802;4.336;2023-12-04T04:17:28;6.43;;;4.50;;
14470;SDS011;7321;50.802;4.336;2023-12-04T04:19:54;7.50;;;4.97;;
14470;SDS011;7321;50.802;4.336;2023-12-04T04:22:21;6.47;;;4.97;;
14470;SDS011;7321;50.802;4.336;2023-12-04T04:24:47;5.87;;;4.53;;
14470;SDS011;7321;50.802;4.336;2023-12-04T04:27:14;6.20;;;4.80;;
14470;SDS011;7321;50.802;4.336;2023-12-04T04:29:40;5.93;;;4.93;;
14470;SDS011;7321;50.802;4.336;2023-12-04T04:32:06;7.07;;;4.80;;
14470;SDS011;7321;50.802;4.336;2023-12-04T04:34:32;8.43;;;5.20;;
14470;SDS011;7321;50.802;4.336;2023-12-04T04:36:58;5.87;;;4.83;;
14470;SDS011;7321;50.802;4.336;2023-12-04T04:39:24;5.97;;;4.77;;
14470;SDS011;7321;50.802;4.336;2023-12-04T04:41:50;7.53;;;4.90;;
14470;SDS011;7321;50.802;4.336;2023-12-04T04:44:16;7.40;;;4.77;;
14470;SDS011;7321;50.802;4.336;2023-12-04T04:46:41;5.57;;;4.87;;
14470;SDS011;7321;50.802;4.336;2023-12-04T04:49:07;5.97;;;4.30;;
14470;SDS011;7321;50.802;4.336;2023-12-04T04:51:33;6.10;;;4.33;;
14470;SDS011;7321;50.802;4.336;2023-12-04T04:54:00;6.13;;;4.40;;
14470;SDS011;7321;50.802;4.336;2023-12-04T04:56:26;7.80;;;4.83;;
14470;SDS011;7321;50.802;4.336;2023-12-04T04:58:52;6.30;;;4.90;;
14470;SDS011;7321;50.802;4.336;2023-12-04T05:01:18;6.63;;;4.93;;
14470;SDS011;7321;50.802;4.336;2023-12-04T05:03:44;5.87;;;4.77;;
14470;SDS011;7321;50.802;4.336;2023-12-04T05:06:10;6.10;;;4.70;;
14470;SDS011;7321;50.802;4.336;2023-12-04T05:08:36;6.13;;;4.43;;
14470;SDS011;7321;50.802;4.336;2023-12-04T05:11:01;6.07;;;4.30;;
14470;SDS011;7321;50.802;4.336;2023-12-04T05:13:27;6.47;;;4.97;;
14470;SDS011;7321;50.802;4.336;2023-12-04T05:15:53;5.80;;;4.40;;
14470;SDS011;7321;50.802;4.336;2023-12-04T05:18:19;6.03;;;4.27;;
14470;SDS011;7321;50.802;4.336;2023-12-04T05:20:45;5.47;;;4.30;;
14470;SDS011;7321;50.802;4.336;2023-12-04T05:23:11;5.27;;;4.27;;
14470;SDS011;7321;50.802;4.336;2023-12-04T05:25:37;4.70;;;3.83;;
14470;SDS011;7321;50.802;4.336;2023-12-04T05:28:03;4.70;;;4.00;;
14470;SDS011;7321;50.802;4.336;2023-12-04T05:30:29;5.07;;;4.00;;
14470;SDS011;7321;50.802;4.336;2023-12-04T05:32:55;4.93;;;3.63;;
14470;SDS011;7321;50.802;4.336;2023-12-04T05:35:21;5.30;;;3.80;;
14470;SDS011;7321;50.802;4.336;2023-12-04T05:37:48;6.33;;;4.27;;
14470;SDS011;7321;50.802;4.336;2023-12-04T05:40:13;4.57;;;3.90;;
14470;SDS011;7321;50.802;4.336;2023-12-04T05:42:39;5.27;;;4.30;;
14470;SDS011;7321;50.802;4.336;2023-12-04T05:45:05;5.63;;;3.97;;
14470;SDS011;7321;50.802;4.336;2023-12-04T05:47:33;5.40;;;4.17;;
14470;SDS011;7321;50.802;4.336;2023-12-04T05:49:59;4.27;;;3.63;;
14470;SDS011;7321;50.802;4.336;2023-12-04T05:52:26;4.60;;;4.00;;
14470;SDS011;7321;50.802;4.336;2023-12-04T05:54:51;4.83;;;3.87;;
14470;SDS011;7321;50.802;4.336;2023-12-04T05:57:17;5.07;;;4.33;;
14470;SDS011;7321;50.802;4.336;2023-12-04T05:59:43;5.90;;;4.27;;
14470;SDS011;7321;50.802;4.336;2023-12-04T06:02:09;4.87;;;3.80;;
14470;SDS011;7321;50.802;4.336;2023-12-04T06:04:35;4.83;;;3.80;;
14470;SDS011;7321;50.802;4.336;2023-12-04T06:07:01;5.33;;;4.00;;
14470;SDS011;7321;50.802;4.336;2023-12-04T06:09:26;5.40;;;4.20;;
14470;SDS011;7321;50.802;4.336;2023-12-04T06:11:52;5.20;;;4.00;;
14470;SDS011;7321;50.802;4.336;2023-12-04T06:14:18;5.83;;;3.97;;
14470;SDS011;7321;50.802;4.336;2023-12-04T06:16:44;5.53;;;4.40;;
14470;SDS011;7321;50.802;4.336;2023-12-04T06:19:10;5.27;;;4.50;;
14470;SDS011;7321;50.802;4.336;2023-12-04T06:21:36;4.73;;;4.00;;
14470;SDS011;7321;50.802;4.336;2023-12-04T06:24:01;4.43;;;4.03;;
14470;SDS011;7321;50.802;4.336;2023-12-04T06:26:27;5.97;;;4.43;;
14470;SDS011;7321;50.802;4.336;2023-12-04T06:28:56;6.00;;;4.70;;
14470;SDS011;7321;50.802;4.336;2023-12-04T06:31:22;6.07;;;4.60;;
14470;SDS011;7321;50.802;4.336;2023-12-04T06:33:48;5.70;;;5.10;;
14470;SDS011;7321;50.802;4.336;2023-12-04T06:36:15;5.73;;;4.50;;
14470;SDS011;7321;50.802;4.336;2023-12-04T06:38:42;7.80;;;4.73;;
14470;SDS011;7321;50.802;4.336;2023-12-04T06:41:12;6.77;;;4.73;;
14470;SDS011;7321;50.802;4.336;2023-12-04T06:43:38;6.83;;;5.00;;
14470;SDS011;7321;50.802;4.336;2023-12-04T06:46:04;8.50;;;5.10;;
14470;SDS011;7321;50.802;4.336;2023-12-04T06:48:31;5.87;;;5.00;;
14470;SDS011;7321;50.802;4.336;2023-12-04T06:50:57;7.87;;;5.50;;
14470;SDS011;7321;50.802;4.336;2023-12-04T06:53:24;6.50;;;4.80;;
14470;SDS011;7321;50.802;4.336;2023-12-04T06:55:50;6.23;;;4.90;;
14470;SDS011;7321;50.802;4.336;2023-12-04T06:58:15;7.17;;;4.60;;
14470;SDS011;7321;50.802;4.336;2023-12-04T07:00:41;6.23;;;4.70;;
14470;SDS011;7321;50.802;4.336;2023-12-04T07:03:07;5.33;;;4.63;;
14470;SDS011;7321;50.802;4.336;2023-12-04T07:05:33;6.87;;;5.23;;
14470;SDS011;7321;50.802;4.336;2023-12-04T07:07:58;5.80;;;5.07;;
14470;SDS011;7321;50.802;4.336;2023-12-04T07:10:24;5.10;;;4.47;;
14470;SDS011;7321;50.802;4.336;2023-12-04T07:12:50;6.80;;;5.03;;
14470;SDS011;7321;50.802;4.336;2023-12-04T07:15:16;6.57;;;5.10;;
14470;SDS011;7321;50.802;4.336;2023-12-04T07:17:42;8.17;;;5.20;;
14470;SDS011;7321;50.802;4.336;2023-12-04T07:20:11;6.63;;;5.20;;
14470;SDS011;7321;50.802;4.336;2023-12-04T07:22:37;7.07;;;5.00;;
14470;SDS011;7321;50.802;4.336;2023-12-04T07:25:03;6.73;;;5.23;;
14470;SDS011;7321;50.802;4.336;2023-12-04T07:27:29;8.10;;;5.13;;
14470;SDS011;7321;50.802;4.336;2023-12-04T07:29:56;5.33;;;4.80;;
14470;SDS011;7321;50.802;4.336;2023-12-04T07:32:21;5.67;;;4.70;;
14470;SDS011;7321;50.802;4.336;2023-12-04T07:34:47;7.43;;;5.97;;
14470;SDS011;7321;50.802;4.336;2023-12-04T07:37:13;6.47;;;5.10;;
14470;SDS011;7321;50.802;4.336;2023-12-04T07:39:39;8.47;;;5.40;;
14470;SDS011;7321;50.802;4.336;2023-12-04T07:42:08;7.43;;;5.37;;
14470;SDS011;7321;50.802;4.336;2023-12-04T07:44:34;5.73;;;5.07;;
14470;SDS011;7321;50.802;4.336;2023-12-04T07:47:01;6.73;;;5.63;;
14470;SDS011;7321;50.802;4.336;2023-12-04T07:49:27;5.47;;;4.93;;
14470;SDS011;7321;50.802;4.336;2023-12-04T07:51:52;6.73;;;5.30;;
14470;SDS011;7321;50.802;4.336;2023-12-04T07:54:18;6.77;;;5.40;;
14470;SDS011;7321;50.802;4.336;2023-12-04T07:56:44;6.20;;;5.20;;
14470;SDS011;7321;50.802;4.336;2023-12-04T07:59:10;8.33;;;6.20;;
14470;SDS011;7321;50.802;4.336;2023-12-04T08:01:36;9.53;;;5.60;;
14470;SDS011;7321;50.802;4.336;2023-12-04T08:04:02;8.10;;;5.77;;
14470;SDS011;7321;50.802;4.336;2023-12-04T08:06:27;8.33;;;6.10;;
14470;SDS011;7321;50.802;4.336;2023-12-04T08:08:53;6.90;;;5.37;;
14470;SDS011;7321;50.802;4.336;2023-12-04T08:11:20;8.70;;;5.80;;
14470;SDS011;7321;50.802;4.336;2023-12-04T08:13:46;7.53;;;6.00;;
14470;SDS011;7321;50.802;4.336;2023-12-04T08:16:12;8.23;;;6.37;;
14470;SDS011;7321;50.802;4.336;2023-12-04T08:18:40;9.60;;;6.30;;
14470;SDS011;7321;50.802;4.336;2023-12-04T08:21:06;7.53;;;5.47;;
14470;SDS011;7321;50.802;4.336;2023-12-04T08:23:33;7.00;;;5.60;;
14470;SDS011;7321;50.802;4.336;2023-12-04T08:25:58;6.77;;;5.33;;
14470;SDS011;7321;50.802;4.336;2023-12-04T08:28:24;6.33;;;5.20;;
14470;SDS011;7321;50.802;4.336;2023-12-04T08:30:50;8.20;;;6.03;;
14470;SDS011;7321;50.802;4.336;2023-12-04T08:33:16;6.37;;;5.70;;
14470;SDS011;7321;50.802;4.336;2023-12-04T08:35:45;6.70;;;5.57;;
14470;SDS011;7321;50.802;4.336;2023-12-04T08:38:12;7.40;;;5.67;;
14470;SDS011;7321;50.802;4.336;2023-12-04T08:40:38;7.93;;;6.07;;
14470;SDS011;7321;50.802;4.336;2023-12-04T08:43:05;6.43;;;5.00;;
14470;SDS011;7321;50.802;4.336;2023-12-04T08:45:30;6.60;;;5.93;;
14470;SDS011;7321;50.802;4.336;2023-12-04T08:47:56;8.67;;;5.63;;
14470;SDS011;7321;50.802;4.336;2023-12-04T08:50:22;8.00;;;5.73;;
14470;SDS011;7321;50.802;4.336;2023-12-04T08:52:50;8.77;;;5.83;;
14470;SDS011;7321;50.802;4.336;2023-12-04T08:55:17;6.77;;;5.50;;
14470;SDS011;7321;50.802;4.336;2023-12-04T08:57:43;9.97;;;5.73;;
14470;SDS011;7321;50.802;4.336;2023-12-04T09:00:09;7.27;;;5.60;;
14470;SDS011;7321;50.802;4.336;2023-12-04T09:02:35;8.07;;;6.07;;
14470;SDS011;7321;50.802;4.336;2023-12-04T09:05:01;6.90;;;5.33;;
14470;SDS011;7321;50.802;4.336;2023-12-04T09:07:27;7.80;;;5.77;;
14470;SDS011;7321;50.802;4.336;2023-12-04T09:09:53;6.90;;;5.60;;
14470;SDS011;7321;50.802;4.336;2023-12-04T09:12:19;5.53;;;4.97;;
14470;SDS011;7321;50.802;4.336;2023-12-04T09:14:44;7.67;;;5.80;;
14470;SDS011;7321;50.802;4.336;2023-12-04T09:17:10;8.87;;;6.10;;
14470;SDS011;7321;50.802;4.336;2023-12-04T09:19:36;8.30;;;5.77;;
14470;SDS011;7321;50.802;4.336;2023-12-04T09:22:02;7.83;;;6.00;;
14470;SDS011;7321;50.802;4.336;2023-12-04T09:24:28;7.90;;;6.13;;
14470;SDS011;7321;50.802;4.336;2023-12-04T09:26:56;9.40;;;6.03;;
14470;SDS011;7321;50.802;4.336;2023-12-04T09:29:22;7.93;;;5.97;;
14470;SDS011;7321;50.802;4.336;2023-12-04T09:31:50;9.03;;;5.63;;
14470;SDS011;7321;50.802;4.336;2023-12-04T09:34:16;7.53;;;6.00;;
14470;SDS011;7321;50.802;4.336;2023-12-04T09:36:43;9.90;;;5.93;;
14470;SDS011;7321;50.802;4.336;2023-12-04T09:39:09;9.57;;;6.60;;
14470;SDS011;7321;50.802;4.336;2023-12-04T09:41:35;10.37;;;5.73;;
14470;SDS011;7321;50.802;4.336;2023-12-04T09:44:03;8.33;;;6.00;;
14470;SDS011;7321;50.802;4.336;2023-12-04T09:46:29;6.80;;;5.57;;
14470;SDS011;7321;50.802;4.336;2023-12-04T09:48:55;7.37;;;6.00;;
14470;SDS011;7321;50.802;4.336;2023-12-04T09:51:22;8.00;;;6.23;;
14470;SDS011;7321;50.802;4.336;2023-12-04T09:53:50;9.10;;;6.20;;
14470;SDS011;7321;50.802;4.336;2023-12-04T09:56:17;10.37;;;7.50;;
14470;SDS011;7321;50.802;4.336;2023-12-04T09:58:44;11.13;;;6.80;;
14470;SDS011;7321;50.802;4.336;2023-12-04T10:01:12;9.13;;;6.57;;
14470;SDS011;7321;50.802;4.336;2023-12-04T10:03:38;9.63;;;6.50;;
14470;SDS011;7321;50.802;4.336;2023-12-04T10:06:05;9.47;;;7.17;;
14470;SDS011;7321;50.802;4.336;2023-12-04T10:08:33;8.27;;;6.77;;
14470;SDS011;7321;50.802;4.336;2023-12-04T10:10:58;8.40;;;6.43;;
14470;SDS011;7321;50.802;4.336;2023-12-04T10:13:26;9.47;;;6.90;;
14470;SDS011;7321;50.802;4.336;2023-12-04T10:15:52;9.07;;;6.80;;
14470;SDS011;7321;50.802;4.336;2023-12-04T10:18:29;9.27;;;6.87;;
14470;SDS011;7321;50.802;4.336;2023-12-04T10:20:57;10.13;;;6.47;;
14470;SDS011;7321;50.802;4.336;2023-12-04T10:23:36;9.63;;;6.93;;
14470;SDS011;7321;50.802;4.336;2023-12-04T10:26:07;9.80;;;6.37;;
14470;SDS011;7321;50.802;4.336;2023-12-04T10:28:33;9.43;;;7.17;;
14470;SDS011;7321;50.802;4.336;2023-12-04T10:31:00;8.57;;;6.93;;
14470;SDS011;7321;50.802;4.336;2023-12-04T10:33:28;8.23;;;6.77;;
14470;SDS011;7321;50.802;4.336;2023-12-04T10:35:54;10.27;;;7.67;;
14470;SDS011;7321;50.802;4.336;2023-12-04T10:38:20;10.00;;;7.00;;
14470;SDS011;7321;50.802;4.336;2023-12-04T10:40:49;9.27;;;7.03;;
14470;SDS011;7321;50.802;4.336;2023-12-04T10:43:15;10.57;;;8.00;;
14470;SDS011;7321;50.802;4.336;2023-12-04T10:45:42;9.60;;;7.60;;
14470;SDS011;7321;50.802;4.336;2023-12-04T10:48:10;8.67;;;6.90;;
14470;SDS011;7321;50.802;4.336;2023-12-04T10:50:37;10.50;;;7.17;;
14470;SDS011;7321;50.802;4.336;2023-12-04T10:53:14;8.73;;;6.53;;
14470;SDS011;7321;50.802;4.336;2023-12-04T10:55:41;16.80;;;11.87;;
14470;SDS011;7321;50.802;4.336;2023-12-04T10:58:10;9.70;;;7.37;;
14470;SDS011;7321;50.802;4.336;2023-12-04T11:00:43;10.27;;;7.37;;
14470;SDS011;7321;50.802;4.336;2023-12-04T11:05:57;7.47;;;6.37;;
14470;SDS011;7321;50.802;4.336;2023-12-04T11:08:27;8.47;;;6.47;;
14470;SDS011;7321;50.802;4.336;2023-12-04T11:11:04;8.57;;;6.30;;
14470;SDS011;7321;50.802;4.336;2023-12-04T11:13:40;7.47;;;6.27;;
14470;SDS011;7321;50.802;4.336;2023-12-04T11:16:09;7.27;;;6.07;;
14470;SDS011;7321;50.802;4.336;2023-12-04T11:18:44;7.70;;;6.10;;
14470;SDS011;7321;50.802;4.336;2023-12-04T11:21:17;8.67;;;6.73;;
14470;SDS011;7321;50.802;4.336;2023-12-04T11:23:45;8.57;;;6.30;;
14470;SDS011;7321;50.802;4.336;2023-12-04T11:26:11;8.63;;;6.13;;
14470;SDS011;7321;50.802;4.336;2023-12-04T11:28:38;8.27;;;6.60;;
14470;SDS011;7321;50.802;4.336;2023-12-04T11:31:05;9.33;;;6.50;;
14470;SDS011;7321;50.802;4.336;2023-12-04T11:33:35;7.37;;;6.23;;
14470;SDS011;7321;50.802;4.336;2023-12-04T11:36:09;6.60;;;6.00;;
14470;SDS011;7321;50.802;4.336;2023-12-04T11:38:37;7.73;;;5.87;;
14470;SDS011;7321;50.802;4.336;2023-12-04T11:43:42;7.83;;;6.13;;
14470;SDS011;7321;50.802;4.336;2023-12-04T11:46:11;7.67;;;6.30;;
14470;SDS011;7321;50.802;4.336;2023-12-04T11:48:40;6.77;;;5.97;;
14470;SDS011;7321;50.802;4.336;2023-12-04T11:51:08;8.50;;;6.23;;
14470;SDS011;7321;50.802;4.336;2023-12-04T11:53:37;6.80;;;6.00;;
14470;SDS011;7321;50.802;4.336;2023-12-04T11:56:08;7.80;;;5.73;;
14470;SDS011;7321;50.802;4.336;2023-12-04T11:58:45;6.13;;;5.53;;
14470;SDS011;7321;50.802;4.336;2023-12-04T12:01:12;6.83;;;6.10;;
14470;SDS011;7321;50.802;4.336;2023-12-04T12:03:38;7.67;;;6.87;;
14470;SDS011;7321;50.802;4.336;2023-12-04T12:06:05;7.03;;;6.27;;
14470;SDS011;7321;50.802;4.336;2023-12-04T12:08:31;6.77;;;5.83;;
14470;SDS011;7321;50.802;4.336;2023-12-04T12:10:57;7.37;;;5.30;;
14470;SDS011;7321;50.802;4.336;2023-12-04T12:13:23;8.00;;;6.13;;
14470;SDS011;7321;50.802;4.336;2023-12-04T12:15:51;8.70;;;6.50;;
14470;SDS011;7321;50.802;4.336;2023-12-04T12:18:17;7.53;;;5.40;;
14470;SDS011;7321;50.802;4.336;2023-12-04T12:20:47;6.33;;;5.43;;
14470;SDS011;7321;50.802;4.336;2023-12-04T12:23:13;7.57;;;6.03;;
14470;SDS011;7321;50.802;4.336;2023-12-04T12:25:39;7.87;;;5.50;;
14470;SDS011;7321;50.802;4.336;2023-12-04T12:28:05;6.33;;;5.40;;
14470;SDS011;7321;50.802;4.336;2023-12-04T12:30:30;6.67;;;5.50;;
14470;SDS011;7321;50.802;4.336;2023-12-04T12:32:57;7.17;;;5.33;;
14470;SDS011;7321;50.802;4.336;2023-12-04T12:35:23;8.13;;;5.40;;
14470;SDS011;7321;50.802;4.336;2023-12-04T12:37:50;7.00;;;5.77;;
14470;SDS011;7321;50.802;4.336;2023-12-04T12:40:20;6.20;;;5.30;;
14470;SDS011;7321;50.802;4.336;2023-12-04T12:42:48;5.43;;;4.90;;
14470;SDS011;7321;50.802;4.336;2023-12-04T12:45:16;7.27;;;5.13;;
14470;SDS011;7321;50.802;4.336;2023-12-04T12:47:42;7.10;;;5.50;;
14470;SDS011;7321;50.802;4.336;2023-12-04T12:50:09;6.40;;;4.93;;
14470;SDS011;7321;50.802;4.336;2023-12-04T12:52:38;6.30;;;5.27;;
14470;SDS011;7321;50.802;4.336;2023-12-04T12:55:06;6.20;;;5.40;;
14470;SDS011;7321;50.802;4.336;2023-12-04T12:57:32;6.53;;;5.47;;
14470;SDS011;7321;50.802;4.336;2023-12-04T12:59:57;6.90;;;5.07;;
14470;SDS011;7321;50.802;4.336;2023-12-04T13:02:23;6.37;;;5.17;;
14470;SDS011;7321;50.802;4.336;2023-12-04T13:04:50;9.17;;;5.93;;
14470;SDS011;7321;50.802;4.336;2023-12-04T13:07:16;6.03;;;5.20;;
14470;SDS011;7321;50.802;4.336;2023-12-04T13:09:43;6.00;;;5.40;;
14470;SDS011;7321;50.802;4.336;2023-12-04T13:12:09;5.87;;;4.83;;
14470;SDS011;7321;50.802;4.336;2023-12-04T13:14:35;5.73;;;5.13;;
14470;SDS011;7321;50.802;4.336;2023-12-04T13:17:01;6.00;;;5.40;;
14470;SDS011;7321;50.802;4.336;2023-12-04T13:19:28;5.90;;;5.30;;
14470;SDS011;7321;50.802;4.336;2023-12-04T13:21:54;5.63;;;4.90;;
14470;SDS011;7321;50.802;4.336;2023-12-04T13:24:19;5.57;;;5.07;;
14470;SDS011;7321;50.802;4.336;2023-12-04T13:26:45;5.50;;;4.90;;
14470;SDS011;7321;50.802;4.336;2023-12-04T13:29:11;6.50;;;5.40;;
14470;SDS011;7321;50.802;4.336;2023-12-04T13:31:41;5.40;;;4.90;;
14470;SDS011;7321;50.802;4.336;2023-12-04T13:34:07;5.20;;;4.50;;
14470;SDS011;7321;50.802;4.336;2023-12-04T13:36:33;5.50;;;4.53;;
14470;SDS011;7321;50.802;4.336;2023-12-04T13:38:59;5.43;;;4.93;;
14470;SDS011;7321;50.802;4.336;2023-12-04T13:41:25;5.07;;;4.57;;
14470;SDS011;7321;50.802;4.336;2023-12-04T13:44:09;5.03;;;4.53;;
14470;SDS011;7321;50.802;4.336;2023-12-04T13:46:39;4.97;;;4.47;;
14470;SDS011;7321;50.802;4.336;2023-12-04T13:49:05;5.07;;;4.57;;
14470;SDS011;7321;50.802;4.336;2023-12-04T13:51:31;5.33;;;4.10;;
14470;SDS011;7321;50.802;4.336;2023-12-04T13:53:56;6.90;;;5.03;;
14470;SDS011;7321;50.802;4.336;2023-12-04T13:56:34;5.57;;;4.67;;
14470;SDS011;7321;50.802;4.336;2023-12-04T13:59:18;4.73;;;4.30;;
14470;SDS011;7321;50.802;4.336;2023-12-04T14:01:45;5.30;;;4.80;;
14470;SDS011;7321;50.802;4.336;2023-12-04T14:04:11;5.60;;;5.10;;
14470;SDS011;7321;50.802;4.336;2023-12-04T14:06:38;6.80;;;5.00;;
14470;SDS011;7321;50.802;4.336;2023-12-04T14:09:04;5.43;;;4.90;;
14470;SDS011;7321;50.802;4.336;2023-12-04T14:11:35;6.90;;;4.80;;
14470;SDS011;7321;50.802;4.336;2023-12-04T14:14:02;4.93;;;4.43;;
14470;SDS011;7321;50.802;4.336;2023-12-04T14:16:29;6.80;;;5.50;;
14470;SDS011;7321;50.802;4.336;2023-12-04T14:18:55;7.10;;;5.13;;
14470;SDS011;7321;50.802;4.336;2023-12-04T14:21:21;6.27;;;5.43;;
14470;SDS011;7321;50.802;4.336;2023-12-04T14:23:47;5.93;;;5.17;;
14470;SDS011;7321;50.802;4.336;2023-12-04T14:26:14;6.23;;;5.10;;
14470;SDS011;7321;50.802;4.336;2023-12-04T14:28:39;5.57;;;4.97;;
14470;SDS011;7321;50.802;4.336;2023-12-04T14:31:05;4.83;;;4.43;;
14470;SDS011;7321;50.802;4.336;2023-12-04T14:33:32;5.93;;;4.80;;
14470;SDS011;7321;50.802;4.336;2023-12-04T14:35:58;6.50;;;4.40;;
14470;SDS011;7321;50.802;4.336;2023-12-04T14:38:24;5.27;;;4.53;;
14470;SDS011;7321;50.802;4.336;2023-12-04T14:40:50;5.03;;;4.53;;
14470;SDS011;7321;50.802;4.336;2023-12-04T14:43:16;6.13;;;5.20;;
14470;SDS011;7321;50.802;4.336;2023-12-04T14:45:42;5.43;;;4.60;;
14470;SDS011;7321;50.802;4.336;2023-12-04T14:48:08;5.20;;;4.70;;
14470;SDS011;7321;50.802;4.336;2023-12-04T14:50:34;5.47;;;4.87;;
14470;SDS011;7321;50.802;4.336;2023-12-04T14:53:01;5.27;;;4.77;;
14470;SDS011;7321;50.802;4.336;2023-12-04T14:55:48;4.47;;;4.03;;
14470;SDS011;7321;50.802;4.336;2023-12-04T14:58:43;4.90;;;4.50;;
14470;SDS011;7321;50.802;4.336;2023-12-04T15:01:09;5.40;;;4.77;;
14470;SDS011;7321;50.802;4.336;2023-12-04T15:03:36;5.27;;;4.40;;